Time;durP1;ratioP1;P1;durP2;ratioP2;P2;SDS_P1;SDS_P2;PMS_P1;PMS_P2;Temp;Humidity;BMP_temperature;BMP_pressure;BME280_temperature;BME280_humidity;BME280_pressure;Samples;Min_cycle;Max_cycle;Signal;HPM_P1;HPM_P2
2021/04/20 00:00:00;;;;;;;0.70;0.60;;;4.90;99.90;;;5.46;100.00;-20830.72;5073459;28;20189;-70
2021/04/20 00:02:27;;;;;;;0.80;0.80;;;4.90;99.90;;;5.37;100.00;-20828.22;5073995;28;20225;-71
2021/04/20 00:04:55;;;;;;;0.77;0.73;;;5.00;99.90;;;5.42;100.00;-20829.75;5090970;28;20207;-71
2021/04/20 00:07:23;;;;;;;0.80;0.80;;;5.00;99.90;;;5.31;100.00;-20826.69;5093823;28;20184;-71
2021/04/20 00:09:50;;;;;;;0.70;0.60;;;4.90;99.90;;;5.27;100.00;-20825.72;5093443;28;20229;-71
2021/04/20 00:12:17;;;;;;;0.80;0.70;;;4.80;99.90;;;5.28;100.00;-20826.00;5093748;28;20223;-71
2021/04/20 00:14:44;;;;;;;0.70;0.60;;;4.80;99.90;;;5.22;100.00;-20824.19;5071390;28;20243;-71
2021/04/20 00:17:11;;;;;;;0.70;0.60;;;4.80;99.90;;;5.21;100.00;-20823.91;5075980;28;20648;-71
2021/04/20 00:19:39;;;;;;;0.70;0.60;;;4.70;99.90;;;5.16;100.00;-20822.66;5090132;28;20216;-71
2021/04/20 00:22:06;;;;;;;0.70;0.60;;;4.70;99.90;;;5.15;100.00;-20822.38;5072991;28;20204;-71
2021/04/20 00:24:34;;;;;;;0.70;0.57;;;4.70;99.90;;;5.10;100.00;-20820.97;5073488;28;20230;-71
2021/04/20 00:27:00;;;;;;;0.70;0.60;;;4.60;99.90;;;5.27;100.00;-20825.72;5073588;28;20274;-71
2021/04/20 00:29:28;;;;;;;0.70;0.68;;;4.60;99.90;;;5.21;100.00;-20824.03;5088155;28;20195;-71
2021/04/20 00:31:54;;;;;;;0.70;0.60;;;4.70;99.90;;;5.19;100.00;-20823.50;5093731;28;20203;-71
2021/04/20 00:34:22;;;;;;;0.70;0.60;;;4.70;99.90;;;5.07;100.00;-20820.13;5087418;28;20713;-70
2021/04/20 00:36:49;;;;;;;0.88;0.80;;;4.60;99.90;;;5.05;100.00;-20819.72;5093575;28;20196;-71
2021/04/20 00:39:16;;;;;;;0.70;0.60;;;4.50;99.90;;;5.09;100.00;-20820.69;5093592;28;20187;-71
2021/04/20 00:41:44;;;;;;;0.80;0.80;;;4.50;99.90;;;5.05;100.00;-20819.59;5093197;28;20615;-71
2021/04/20 00:44:11;;;;;;;0.70;0.70;;;4.50;99.90;;;5.03;100.00;-20819.03;5090614;28;20196;-71
2021/04/20 00:46:38;;;;;;;0.70;0.60;;;4.50;99.90;;;4.90;100.00;-20815.56;5109165;28;20192;-70
2021/04/20 00:49:06;;;;;;;0.90;0.90;;;4.40;99.90;;;4.80;100.00;-20812.91;5086893;28;20196;-70
2021/04/20 00:51:33;;;;;;;0.70;0.60;;;4.40;99.90;;;4.84;100.00;-20813.88;5083615;28;20188;-70
2021/04/20 00:54:00;;;;;;;0.80;0.70;;;4.40;99.90;;;4.76;100.00;-20811.78;5081739;28;20283;-70
2021/04/20 00:56:27;;;;;;;0.70;0.60;;;4.30;99.90;;;4.71;100.00;-20810.41;5073361;28;20185;-71
2021/04/20 00:58:55;;;;;;;0.70;0.60;;;4.30;99.90;;;4.70;100.00;-20809.97;5072687;28;20246;-70
2021/04/20 01:01:22;;;;;;;1.00;0.90;;;4.20;99.90;;;4.63;100.00;-20808.16;5073081;28;20618;-71
2021/04/20 01:03:49;;;;;;;0.70;0.60;;;4.10;99.90;;;4.63;100.00;-20808.16;5087555;28;20261;-71
2021/04/20 01:06:16;;;;;;;0.70;0.60;;;4.10;99.90;;;4.69;100.00;-20809.84;5076389;28;20553;-71
2021/04/20 01:08:43;;;;;;;0.70;0.70;;;4.10;99.90;;;4.67;100.00;-20809.28;5073152;28;20184;-71
2021/04/20 01:11:11;;;;;;;0.80;0.80;;;4.10;99.90;;;4.82;100.00;-20813.47;5072973;28;20664;-71
2021/04/20 01:13:38;;;;;;;0.70;0.60;;;4.20;99.90;;;4.82;100.00;-20813.47;5081158;28;20208;-71
2021/04/20 01:16:06;;;;;;;0.80;0.70;;;4.20;99.90;;;4.69;100.00;-20809.84;5108743;28;20619;-71
2021/04/20 01:18:37;;;;;;;0.70;0.70;;;4.20;99.90;;;4.62;100.00;-20807.88;5089940;28;20197;-71
2021/04/20 01:21:08;;;;;;;1.45;1.23;;;4.10;99.90;;;4.58;100.00;-20806.78;5072883;28;20238;-71
2021/04/20 01:23:52;;;;;;;0.75;0.70;;;4.00;99.90;;;4.54;100.00;-20805.66;5085804;28;20182;-71
2021/04/20 01:26:24;;;;;;;1.23;1.02;;;4.00;99.90;;;4.56;100.00;-20806.34;5092895;28;20196;-71
2021/04/20 01:28:52;;;;;;;0.77;0.63;;;3.90;99.90;;;4.63;100.00;-20808.16;5075600;28;20616;-71
2021/04/20 01:31:20;;;;;;;0.70;0.60;;;3.90;99.90;;;4.54;100.00;-20805.66;5088247;28;20227;-71
2021/04/20 01:33:47;;;;;;;0.80;0.70;;;3.90;99.90;;;4.61;100.00;-20807.63;5074576;28;20197;-71
2021/04/20 01:36:18;;;;;;;0.70;0.63;;;3.90;99.90;;;4.52;100.00;-20805.09;5075130;28;20243;-70
2021/04/20 01:38:47;;;;;;;0.73;0.60;;;3.90;99.90;;;4.38;100.00;-20801.19;5080406;28;20196;-70
2021/04/20 01:41:16;;;;;;;0.70;0.60;;;3.90;99.90;;;4.35;100.00;-20800.66;5095504;28;20199;-71
2021/04/20 01:43:45;;;;;;;0.80;0.70;;;4.00;99.90;;;4.39;100.00;-20801.47;5095084;28;20212;-70
2021/04/20 01:46:14;;;;;;;0.70;0.70;;;3.80;99.90;;;4.31;100.00;-20799.53;5096505;28;20258;-71
2021/04/20 01:48:41;;;;;;;0.80;0.63;;;3.80;99.90;;;4.28;100.00;-20798.56;5095909;28;20187;-71
2021/04/20 01:51:09;;;;;;;1.05;0.98;;;3.80;99.90;;;4.34;100.00;-20800.38;5080433;28;20267;-71
2021/04/20 01:53:37;;;;;;;1.65;1.55;;;3.70;99.90;;;4.26;100.00;-20798.13;5079979;28;20185;-70
2021/04/20 01:56:07;;;;;;;0.70;0.60;;;3.70;99.90;;;4.24;100.00;-20797.44;5075540;28;20185;-71
2021/04/20 01:58:36;;;;;;;1.15;1.08;;;3.80;99.90;;;4.25;100.00;-20797.72;5091080;28;20211;-71
2021/04/20 02:01:09;;;;;;;2.97;2.85;;;3.80;99.90;;;4.21;100.00;-20796.59;5076393;28;20223;-71
2021/04/20 02:03:37;;;;;;;2.88;1.67;;;3.80;99.90;;;4.13;100.00;-20794.38;5080806;28;20185;-71
2021/04/20 02:06:07;;;;;;;0.70;0.68;;;3.60;99.90;;;4.10;100.00;-20793.81;5095247;28;20192;-71
2021/04/20 02:08:34;;;;;;;0.90;0.90;;;3.60;99.90;;;4.04;100.00;-20792.00;5094519;28;20621;-71
2021/04/20 02:11:05;;;;;;;0.70;0.68;;;3.50;99.90;;;3.99;100.00;-20790.63;5074892;28;20231;-71
2021/04/20 02:13:33;;;;;;;0.70;0.60;;;3.50;99.90;;;3.95;100.00;-20789.50;5075763;28;20254;-71
2021/04/20 02:16:01;;;;;;;0.80;0.68;;;3.40;99.90;;;3.88;100.00;-20787.69;5094297;28;20184;-71
2021/04/20 02:18:32;;;;;;;0.70;0.60;;;3.40;99.90;;;3.90;100.00;-20788.09;5095373;28;20177;-71
2021/04/20 02:21:00;;;;;;;0.70;0.60;;;3.40;99.90;;;4.01;100.00;-20791.16;5081547;28;20199;-71
2021/04/20 02:23:27;;;;;;;0.70;0.65;;;3.40;99.90;;;3.90;100.00;-20788.09;5075982;28;20201;-71
2021/04/20 02:26:04;;;;;;;0.70;0.60;;;3.40;99.90;;;3.81;100.00;-20785.88;5075736;28;20214;-71
2021/04/20 02:28:32;;;;;;;0.70;0.60;;;3.40;99.90;;;3.80;100.00;-20785.59;5075037;28;20254;-71
2021/04/20 02:31:01;;;;;;;0.77;0.65;;;3.40;99.90;;;3.84;100.00;-20786.72;5075377;28;20217;-71
2021/04/20 02:33:30;;;;;;;0.70;0.60;;;3.30;99.90;;;3.80;100.00;-20785.47;5081813;28;20184;-71
2021/04/20 02:35:58;;;;;;;0.70;0.60;;;3.30;99.90;;;3.80;100.00;-20785.59;5095380;28;20188;-71
2021/04/20 02:38:26;;;;;;;0.70;0.60;;;3.30;99.90;;;3.74;100.00;-20783.78;5094932;28;20184;-71
2021/04/20 02:40:55;;;;;;;0.70;0.60;;;3.20;99.90;;;3.78;100.00;-20784.91;5095852;28;20184;-71
2021/04/20 02:43:24;;;;;;;0.70;0.70;;;3.20;99.90;;;3.80;100.00;-20785.59;5094678;28;20212;-71
2021/04/20 02:45:53;;;;;;;1.08;0.98;;;3.20;99.90;;;3.77;100.00;-20784.75;5093593;28;20271;-71
2021/04/20 02:48:21;;;;;;;1.13;1.02;;;3.20;99.90;;;3.84;100.00;-20786.72;5094500;28;20188;-71
2021/04/20 02:50:50;;;;;;;0.70;0.60;;;3.20;99.90;;;3.79;100.00;-20785.31;5090343;28;20188;-71
2021/04/20 02:53:17;;;;;;;0.70;0.60;;;3.20;99.90;;;3.87;100.00;-20787.53;5095482;28;20245;-71
2021/04/20 02:55:45;;;;;;;0.70;0.60;;;3.20;99.90;;;4.05;100.00;-20792.28;5095278;28;20188;-71
2021/04/20 02:58:16;;;;;;;0.75;0.65;;;3.30;99.90;;;3.98;100.00;-20790.47;5089528;28;20265;-71
2021/04/20 03:00:45;;;;;;;0.80;0.70;;;3.40;99.90;;;4.15;100.00;-20795.06;5073997;28;20555;-71
2021/04/20 03:03:16;;;;;;;0.70;0.70;;;3.50;99.90;;;4.16;100.00;-20795.22;5075039;28;20248;-71
2021/04/20 03:05:43;;;;;;;0.70;0.60;;;3.60;99.90;;;3.94;100.00;-20789.22;5086211;28;20187;-70
2021/04/20 03:08:11;;;;;;;0.80;0.70;;;3.50;99.90;;;3.84;100.00;-20786.72;5094221;28;20185;-72
2021/04/20 03:10:41;;;;;;;0.70;0.68;;;3.30;99.90;;;3.77;100.00;-20784.75;5093779;28;20200;-71
2021/04/20 03:13:08;;;;;;;0.80;0.70;;;3.20;99.90;;;3.77;100.00;-20784.75;5094380;28;20741;-70
2021/04/20 03:15:35;;;;;;;0.70;0.60;;;3.10;99.90;;;3.71;100.00;-20783.09;5092959;28;20188;-70
2021/04/20 03:18:04;;;;;;;0.90;0.90;;;3.10;99.90;;;3.63;100.00;-20780.84;5088974;28;20671;-71
2021/04/20 03:20:33;;;;;;;0.70;0.60;;;3.10;99.90;;;3.59;100.00;-20779.75;5093054;28;20180;-71
2021/04/20 03:23:00;;;;;;;0.80;0.80;;;3.00;99.90;;;3.63;100.00;-20780.84;5094584;28;20196;-70
2021/04/20 03:25:32;;;;;;;0.70;0.60;;;3.00;99.90;;;3.60;100.00;-20780.00;5094714;28;20222;-71
2021/04/20 03:27:59;;;;;;;0.70;0.60;;;3.00;99.90;;;3.59;100.00;-20779.75;5089210;28;20322;-71
2021/04/20 03:30:29;;;;;;;0.70;0.60;;;3.00;99.90;;;3.79;100.00;-20785.19;5091108;28;20208;-71
2021/04/20 03:33:05;;;;;;;0.70;0.60;;;3.10;99.90;;;3.69;100.00;-20782.38;5075898;28;20223;-71
2021/04/20 03:35:43;;;;;;;0.70;0.70;;;3.20;99.90;;;3.57;100.00;-20779.19;5077085;28;20225;-71
2021/04/20 03:38:22;;;;;;;0.80;0.77;;;3.10;99.90;;;3.54;100.00;-20778.34;5086332;28;20185;-71
2021/04/20 03:40:57;;;;;;;0.75;0.70;;;3.00;99.90;;;3.46;100.00;-20776.25;5073355;28;20188;-71
2021/04/20 03:43:31;;;;;;;0.70;0.60;;;2.90;99.90;;;3.38;100.00;-20774.16;5065624;28;20227;-71
2021/04/20 03:46:03;;;;;;;0.77;0.70;;;2.90;99.90;;;3.37;100.00;-20773.75;5074013;28;20177;-70
2021/04/20 03:48:39;;;;;;;0.75;0.70;;;2.80;99.90;;;3.28;100.00;-20771.38;5074195;28;20174;-71
2021/04/20 03:51:12;;;;;;;0.70;0.60;;;2.70;99.90;;;3.31;100.00;-20772.19;5084034;28;20184;-70
2021/04/20 03:53:45;;;;;;;0.80;0.80;;;2.70;99.90;;;3.26;100.00;-20770.66;5072879;28;20222;-71
2021/04/20 03:56:15;;;;;;;0.70;0.60;;;2.70;99.90;;;3.26;100.00;-20770.81;5091238;28;20176;-71
2021/04/20 03:58:45;;;;;;;3.95;1.15;;;2.70;99.90;;;3.21;100.00;-20769.41;5094321;28;20204;-71
2021/04/20 04:01:14;;;;;;;0.70;0.60;;;2.70;99.90;;;3.21;100.00;-20769.41;5092011;28;20188;-71
2021/04/20 04:03:47;;;;;;;0.70;0.60;;;2.70;99.90;;;3.27;100.00;-20771.09;5094251;28;20206;-71
2021/04/20 04:06:20;;;;;;;0.80;0.77;;;2.60;99.90;;;3.19;100.00;-20768.72;5074909;28;20177;-72
2021/04/20 04:08:50;;;;;;;0.70;0.70;;;2.70;99.90;;;3.20;100.00;-20769.13;5072546;28;20173;-72
2021/04/20 04:11:21;;;;;;;1.00;0.90;;;2.70;99.90;;;3.19;100.00;-20768.84;5072489;28;20197;-72
2021/04/20 04:13:50;;;;;;;0.70;0.63;;;2.60;99.90;;;3.33;100.00;-20772.75;5073856;28;20173;-71
2021/04/20 04:16:22;;;;;;;0.80;0.70;;;2.60;99.90;;;3.31;100.00;-20772.19;5073506;28;20657;-71
2021/04/20 04:18:53;;;;;;;0.70;0.70;;;2.70;99.90;;;3.28;100.00;-20771.38;5077974;28;20176;-71
2021/04/20 04:21:31;;;;;;;0.70;0.65;;;2.70;99.90;;;3.36;100.00;-20773.47;5086547;28;20188;-71
2021/04/20 04:24:04;;;;;;;0.80;0.70;;;2.70;99.90;;;3.39;100.00;-20774.44;5073461;28;20580;-71
2021/04/20 04:26:36;;;;;;;0.70;0.60;;;2.70;99.90;;;3.33;100.00;-20772.75;5075059;28;20652;-71
2021/04/20 04:29:10;;;;;;;0.70;0.68;;;2.70;99.90;;;3.33;100.00;-20772.75;5072816;28;20625;-71
2021/04/20 04:31:42;;;;;;;0.70;0.70;;;2.70;99.90;;;3.27;100.00;-20770.94;5080687;28;20196;-71
2021/04/20 04:34:13;;;;;;;0.70;0.60;;;2.70;99.90;;;3.28;100.00;-20771.38;5093462;28;20222;-71
2021/04/20 04:36:41;;;;;;;0.70;0.60;;;2.70;99.90;;;3.24;100.00;-20770.25;5072109;28;20234;-71
2021/04/20 04:39:12;;;;;;;0.70;0.65;;;2.70;99.90;;;3.29;100.00;-20771.66;5091305;28;20191;-71
2021/04/20 04:41:41;;;;;;;0.80;0.80;;;2.70;99.90;;;3.25;100.00;-20770.53;5093672;28;20688;-71
2021/04/20 04:44:10;;;;;;;0.82;0.82;;;2.70;99.90;;;3.27;100.00;-20770.94;5094182;28;20248;-71
2021/04/20 04:46:37;;;;;;;0.70;0.70;;;2.60;99.90;;;3.22;100.00;-20769.69;5094212;28;20544;-71
2021/04/20 04:49:06;;;;;;;0.70;0.70;;;2.60;99.90;;;3.39;100.00;-20774.44;5086247;28;20590;-72
2021/04/20 04:51:34;;;;;;;0.70;0.60;;;2.70;99.90;;;3.43;100.00;-20775.28;5072768;28;20192;-72
2021/04/20 04:54:02;;;;;;;0.70;0.68;;;2.80;99.90;;;3.44;100.00;-20775.56;5085466;28;20205;-71
2021/04/20 04:56:30;;;;;;;0.70;0.70;;;2.90;99.90;;;3.43;100.00;-20775.41;5093133;28;20199;-71
2021/04/20 04:59:01;;;;;;;0.75;0.60;;;2.90;99.90;;;3.45;100.00;-20775.84;5083552;28;20188;-71
2021/04/20 05:01:29;;;;;;;0.70;0.63;;;2.90;99.90;;;3.50;100.00;-20777.22;5085840;28;20527;-71
2021/04/20 05:04:06;;;;;;;0.70;0.63;;;2.90;99.90;;;3.54;100.00;-20778.34;5093331;28;20651;-70
2021/04/20 05:06:38;;;;;;;0.70;0.60;;;2.90;99.90;;;3.61;100.00;-20780.44;5075105;28;20289;-71
2021/04/20 05:09:08;;;;;;;0.70;0.63;;;2.90;99.90;;;3.66;100.00;-20781.56;5079999;28;20204;-71
2021/04/20 05:11:39;;;;;;;0.70;0.60;;;3.00;99.90;;;3.73;100.00;-20783.66;5085866;28;20200;-71
2021/04/20 05:14:07;;;;;;;0.70;0.70;;;3.10;99.90;;;3.83;100.00;-20786.44;5092333;28;20189;-71
2021/04/20 05:16:35;;;;;;;0.70;0.60;;;3.20;99.90;;;3.87;100.00;-20787.53;5092737;28;20200;-71
2021/04/20 05:19:03;;;;;;;0.70;0.60;;;3.30;99.90;;;3.91;100.00;-20788.53;5094810;28;20263;-71
2021/04/20 05:21:31;;;;;;;0.70;0.60;;;3.30;99.90;;;4.19;100.00;-20796.03;5094632;28;20212;-71
2021/04/20 05:23:59;;;;;;;0.70;0.60;;;3.50;99.90;;;4.25;100.00;-20797.84;5086511;28;20201;-71
2021/04/20 05:26:26;;;;;;;0.70;0.60;;;3.60;99.90;;;4.37;100.00;-20801.06;5084678;28;20192;-71
2021/04/20 05:28:55;;;;;;;0.70;0.60;;;3.70;99.90;;;4.46;100.00;-20803.44;5090843;28;20641;-71
2021/04/20 05:31:23;;;;;;;0.70;0.60;;;3.80;99.90;;;4.55;100.00;-20805.94;5077033;28;20181;-71
2021/04/20 05:33:55;;;;;;;0.70;0.60;;;3.80;99.90;;;4.66;100.00;-20809.00;5075745;28;20264;-71
2021/04/20 05:36:22;;;;;;;0.70;0.60;;;3.90;99.90;;;4.75;100.00;-20811.38;5093989;28;20176;-71
2021/04/20 05:38:51;;;;;;;0.70;0.60;;;4.00;99.90;;;4.90;100.00;-20815.41;5097906;28;20668;-72
2021/04/20 05:41:23;;;;;;;0.70;0.60;;;4.20;99.90;;;5.03;100.00;-20819.03;5083969;28;20637;-71
2021/04/20 05:43:51;;;;;;;0.70;0.70;;;4.30;99.90;;;5.24;100.00;-20824.88;5076345;28;20197;-72
2021/04/20 05:46:19;;;;;;;0.70;0.70;;;4.50;99.90;;;5.43;100.00;-20830.03;5082571;28;20188;-71
2021/04/20 05:48:49;;;;;;;0.70;0.60;;;4.60;99.90;;;5.71;100.00;-20837.53;5096423;28;20648;-71
2021/04/20 05:51:17;;;;;;;0.70;0.50;;;4.90;99.90;;;5.94;100.00;-20843.94;5094913;28;20682;-71
2021/04/20 05:53:45;;;;;;;0.70;0.60;;;5.10;99.90;;;6.16;100.00;-20849.94;5096721;28;20173;-71
2021/04/20 05:56:15;;;;;;;0.70;0.60;;;5.30;99.90;;;6.31;100.00;-20853.81;5096672;28;20187;-71
2021/04/20 05:58:42;;;;;;;0.70;0.60;;;5.30;99.90;;;6.41;100.00;-20856.59;5095940;28;20567;-71
2021/04/20 06:01:10;;;;;;;0.70;0.60;;;5.40;99.90;;;6.52;100.00;-20859.78;5076702;28;20355;-71
2021/04/20 06:03:40;;;;;;;8.80;2.45;;;5.50;99.90;;;6.68;100.00;-20864.09;5074518;28;20213;-71
2021/04/20 06:06:15;;;;;;;0.70;0.60;;;5.60;99.90;;;6.83;100.00;-20868.00;5091074;28;20184;-71
2021/04/20 06:08:43;;;;;;;0.70;0.60;;;5.60;99.90;;;6.89;100.00;-20869.66;5094107;28;20232;-72
2021/04/20 06:11:11;;;;;;;0.70;0.60;;;5.80;99.90;;;7.03;100.00;-20873.53;5076587;28;20269;-71
2021/04/20 06:13:39;;;;;;;0.70;0.50;;;6.00;99.90;;;7.21;100.00;-20878.53;5075968;28;20204;-71
2021/04/20 06:16:07;;;;;;;0.70;0.60;;;6.10;99.90;;;7.39;100.00;-20883.28;5075824;28;20187;-71
2021/04/20 06:18:37;;;;;;;0.70;0.60;;;6.40;99.90;;;7.54;100.00;-20887.44;5087248;28;20191;-71
2021/04/20 06:21:08;;;;;;;0.70;0.60;;;6.50;99.90;;;7.72;100.00;-20892.44;5081417;28;20204;-71
2021/04/20 06:23:37;;;;;;;0.70;0.70;;;6.70;99.90;;;7.72;100.00;-20892.44;5075872;28;20203;-71
2021/04/20 06:26:06;;;;;;;0.70;0.60;;;6.90;99.90;;;7.79;100.00;-20894.25;5086366;28;20438;-71
2021/04/20 06:28:36;;;;;;;0.70;0.60;;;7.00;99.90;;;7.97;100.00;-20899.22;5082258;28;21001;-72
2021/04/20 06:31:07;;;;;;;0.93;0.87;;;7.20;99.90;;;8.16;100.00;-20904.38;5081994;28;20447;-71
2021/04/20 06:33:37;;;;;;;0.70;0.60;;;7.40;99.90;;;8.27;100.00;-20907.13;5074965;28;20449;-71
2021/04/20 06:36:09;;;;;;;0.70;0.60;;;7.60;99.90;;;8.31;100.00;-20908.25;5086218;28;20839;-71
2021/04/20 06:38:40;;;;;;;0.70;0.60;;;7.70;99.90;;;8.41;100.00;-20911.03;5075461;28;20419;-71
2021/04/20 06:41:10;;;;;;;0.70;0.60;;;7.90;99.90;;;8.52;100.00;-20914.09;5057776;28;20431;-71
2021/04/20 06:43:59;;;;;;;0.70;0.60;;;8.00;99.90;;;8.79;100.00;-20921.28;5084573;28;20552;-71
2021/04/20 06:46:36;;;;;;;0.70;0.60;;;8.10;99.90;;;8.80;100.00;-20921.56;5094615;28;20525;-71
2021/04/20 06:49:10;;;;;;;0.70;0.50;;;8.20;99.90;;;9.23;100.00;-20933.22;5095272;28;20494;-71
2021/04/20 06:51:42;;;;;;;0.70;0.60;;;8.30;99.90;;;9.16;100.00;-20931.41;5076383;28;20439;-71
2021/04/20 06:54:21;;;;;;;0.70;0.50;;;8.50;99.90;;;9.37;100.00;-20937.22;5083302;28;20947;-71
2021/04/20 06:56:54;;;;;;;0.93;0.80;;;8.60;99.90;;;9.82;100.00;-20949.28;5094783;28;20449;-71
2021/04/20 06:59:36;;;;;;;0.80;0.77;;;8.90;99.90;;;10.65;100.00;-20971.84;5095036;28;20430;-71
2021/04/20 07:02:17;;;;;;;0.70;0.70;;;9.10;99.90;;;10.87;100.00;-20977.78;5095005;28;20418;-71
2021/04/20 07:04:49;;;;;;;0.70;0.60;;;9.20;99.90;;;11.06;100.00;-20982.91;5081997;28;20492;-71
2021/04/20 07:07:39;;;;;;;1.03;0.93;;;9.70;99.90;;;11.45;100.00;-20993.41;5093851;28;20498;-72
2021/04/20 07:10:17;;;;;;;0.70;0.60;;;9.90;99.90;;;11.89;100.00;-21005.44;5093734;28;20430;-70
2021/04/20 07:12:48;;;;;;;0.70;0.60;;;10.30;99.90;;;12.39;100.00;-21018.81;5090118;28;20455;-70
2021/04/20 07:15:20;;;;;;;0.70;0.60;;;10.60;99.90;;;13.12;100.00;-21038.53;5105855;28;20504;-71
2021/04/20 07:18:51;;;;;;;0.70;0.60;;;10.80;99.90;;;12.63;100.00;-21025.31;5093291;28;20427;-71
2021/04/20 07:21:32;;;;;;;0.83;0.83;;;11.20;99.90;;;13.36;100.00;-21045.03;5074515;28;20521;-70
2021/04/20 07:24:18;;;;;;;0.70;0.60;;;11.30;99.90;;;13.46;100.00;-21047.94;5076716;28;20552;-70
2021/04/20 07:27:13;;;;;;;0.70;0.70;;;11.50;99.90;;;13.93;100.00;-21060.59;5090387;28;20468;-70
2021/04/20 07:29:53;;;;;;;0.70;0.63;;;11.60;99.90;;;13.90;100.00;-21059.63;5094385;28;20504;-71
2021/04/20 07:32:45;;;;;;;0.90;0.90;;;11.60;99.90;;;14.76;100.00;-21082.91;5075591;28;20417;-71
2021/04/20 07:35:21;;;;;;;0.80;0.67;;;11.70;99.90;;;13.91;100.00;-21060.03;5080786;28;20419;-71
2021/04/20 07:37:54;;;;;;;0.80;0.70;;;12.30;99.90;;;13.86;100.00;-21058.66;5092572;28;20433;-71
2021/04/20 07:40:38;;;;;;;0.70;0.60;;;12.60;99.90;;;14.75;100.00;-21082.63;5095001;28;20875;-72
2021/04/20 07:43:34;;;;;;;0.80;0.80;;;12.80;99.90;;;15.01;100.00;-21089.50;5093367;28;20989;-71
2021/04/20 07:46:09;;;;;;;0.80;0.70;;;12.90;99.90;;;15.21;100.00;-21095.16;5094338;28;20505;-72
2021/04/20 07:48:57;;;;;;;0.80;0.80;;;13.10;99.90;;;15.08;100.00;-21091.44;5091526;28;20437;-71
2021/04/20 07:51:37;;;;;;;0.80;0.80;;;13.40;99.90;;;15.46;100.00;-21101.88;5072733;28;20462;-71
2021/04/20 07:54:12;;;;;;;1.33;1.17;;;13.50;99.90;;;15.92;100.00;-21114.13;5074043;28;20427;-71
2021/04/20 07:56:45;;;;;;;1.43;1.33;;;13.80;99.90;;;17.06;100.00;-21144.88;5073969;28;20450;-72
2021/04/20 07:59:21;;;;;;;0.80;0.70;;;13.40;99.90;;;16.89;100.00;-21140.22;5073810;28;20431;-72
2021/04/20 08:01:55;;;;;;;0.80;0.70;;;13.30;99.90;;;16.00;100.00;-21116.19;5073813;28;20404;-71
2021/04/20 08:04:40;;;;;;;0.90;0.70;;;13.70;99.90;;;16.31;100.00;-21124.69;5084960;28;20511;-72
2021/04/20 08:07:13;;;;;;;0.80;0.70;;;13.70;99.90;;;16.99;100.00;-21142.81;5087882;28;20461;-72
2021/04/20 08:09:46;;;;;;;1.47;1.20;;;14.00;99.90;;;17.43;100.00;-21154.63;5073756;28;20417;-71
2021/04/20 08:12:20;;;;;;;1.97;1.87;;;14.30;99.90;;;18.21;100.00;-21175.59;5072983;28;20500;-71
2021/04/20 08:14:58;;;;;;;0.80;0.70;;;14.20;99.90;;;17.79;100.00;-21164.34;5093325;28;20419;-71
2021/04/20 08:17:44;;;;;;;0.80;0.80;;;14.30;99.90;;;18.70;100.00;-21188.88;5092848;28;20426;-71
2021/04/20 08:20:16;;;;;;;0.80;0.77;;;14.40;99.90;;;18.41;100.00;-21181.06;5079777;28;20554;-72
2021/04/20 08:22:45;;;;;;;0.80;0.63;;;14.80;99.90;;;18.66;100.00;-21187.78;5073812;28;20555;-71
2021/04/20 08:25:22;;;;;;;1.13;0.97;;;15.00;99.90;;;19.15;100.00;-21200.91;5072466;28;20450;-71
2021/04/20 08:27:59;;;;;;;1.87;1.23;;;15.60;99.90;;;18.60;100.00;-21186.13;5079044;28;20457;-71
2021/04/20 08:30:36;;;;;;;0.80;0.70;;;15.60;99.90;;;19.03;100.00;-21197.63;5075476;28;20983;-71
2021/04/20 08:33:13;;;;;;;2.23;1.00;;;15.90;99.90;;;20.33;100.00;-21232.34;5076893;28;20418;-71
2021/04/20 08:35:42;;;;;;;3.67;2.60;;;16.00;99.90;;;20.87;100.00;-21246.84;5086121;28;20929;-71
2021/04/20 08:38:32;;;;;;;1.13;1.00;;;15.80;99.90;;;19.33;100.00;-21205.56;5092431;28;20414;-71
2021/04/20 08:41:07;;;;;;;1.23;1.13;;;16.30;99.90;;;20.01;100.00;-21223.88;5092318;28;20423;-71
2021/04/20 08:43:54;;;;;;;4.63;1.20;;;16.50;99.90;;;20.20;100.00;-21229.06;5091550;28;20833;-71
2021/04/20 08:46:40;;;;;;;0.90;0.80;;;16.30;99.90;;;19.92;100.00;-21221.56;5073700;28;20415;-71
2021/04/20 08:49:17;;;;;;;1.00;0.77;;;16.50;99.90;;;20.28;100.00;-21231.13;5073413;28;20419;-71
2021/04/20 08:51:54;;;;;;;2.27;1.00;;;16.30;99.90;;;20.34;100.00;-21232.75;5092143;28;20452;-71
2021/04/20 08:54:50;;;;;;;0.87;0.80;;;16.70;99.90;;;20.11;100.00;-21226.63;5093445;28;20441;-71
2021/04/20 08:57:27;;;;;;;1.00;0.70;;;16.80;99.90;;;19.46;100.00;-21209.13;5093282;28;20844;-71
2021/04/20 09:00:11;;;;;;;1.43;1.30;;;16.90;99.90;;;19.83;100.00;-21218.97;5065448;28;20450;-71
2021/04/20 09:03:00;;;;;;;0.80;0.70;;;17.20;99.90;;;20.65;100.00;-21241.09;5071555;28;20439;-71
2021/04/20 09:05:38;;;;;;;1.60;0.83;;;17.70;99.90;;;20.74;100.00;-21243.41;5073149;28;20423;-71
2021/04/20 09:08:22;;;;;;;0.80;0.80;;;17.50;99.90;;;21.09;100.00;-21252.69;5071571;28;20969;-71
2021/04/20 09:11:00;;;;;;;1.00;0.77;;;17.80;99.90;;;21.18;100.00;-21255.16;5072018;28;20411;-71
2021/04/20 09:13:37;;;;;;;1.47;1.27;;;18.20;99.90;;;21.45;100.00;-21262.38;5071244;28;20470;-71
2021/04/20 09:16:20;;;;;;;1.47;1.37;;;18.40;99.90;;;22.40;100.00;-21287.72;5092158;28;20815;-71
2021/04/20 09:18:50;;;;;;;1.00;0.80;;;18.40;99.90;;;21.63;100.00;-21267.28;5091869;28;20466;-71
2021/04/20 09:21:27;;;;;;;0.90;0.80;;;18.10;99.90;;;23.13;100.00;-21307.34;5087744;28;20430;-71
2021/04/20 09:24:06;;;;;;;0.90;0.80;;;17.80;99.90;;;21.54;100.00;-21264.84;5093050;28;20497;-72
2021/04/20 09:27:02;;;;;;;0.70;0.60;;;18.10;99.90;;;22.03;100.00;-21277.91;5088402;28;20536;-71
2021/04/20 09:29:34;;;;;;;1.23;1.13;;;18.20;99.90;;;22.22;100.00;-21282.84;5087440;28;20448;-71
2021/04/20 09:32:08;;;;;;;1.10;0.90;;;18.20;99.90;;;24.76;100.00;-21350.66;5093151;28;20504;-73
2021/04/20 09:34:42;;;;;;;1.67;1.07;;;17.90;99.90;;;23.14;99.80;-21307.59;5088724;28;20418;-72
2021/04/20 09:37:10;;;;;;;1.27;1.10;;;17.70;99.90;;;22.93;100.00;-21301.75;5073157;28;20419;-73
2021/04/20 09:39:41;;;;;;;1.27;1.17;;;18.40;99.90;;;23.87;100.00;-21326.91;5071639;28;20435;-71
2021/04/20 09:42:11;;;;;;;1.40;1.00;;;18.60;95.20;;;22.46;100.00;-21289.38;5071694;28;20435;-71
2021/04/20 09:45:05;;;;;;;1.03;0.70;;;18.90;91.80;;;22.67;100.00;-21295.09;5072241;28;20435;-71
2021/04/20 09:48:00;;;;;;;2.03;1.57;;;19.10;85.30;;;24.35;95.11;-21339.69;5072809;28;20423;-71
2021/04/20 09:50:39;;;;;;;0.70;0.50;;;18.40;75.40;;;24.23;91.14;-21336.41;5079204;28;20870;-71
2021/04/20 09:53:37;;;;;;;0.87;0.70;;;17.90;64.50;;;21.83;100.00;-21272.47;5090939;28;20468;-72
2021/04/20 09:56:17;;;;;;;0.70;0.60;;;18.60;71.40;;;22.41;100.00;-21288.00;5096254;28;20457;-72
2021/04/20 09:58:47;;;;;;;0.70;0.60;;;18.90;62.00;;;20.66;100.00;-21241.38;5095025;28;20414;-71
2021/04/20 10:01:34;;;;;;;0.87;0.67;;;18.90;56.80;;;23.97;96.23;-21329.63;5076218;28;20447;-71
2021/04/20 10:04:07;;;;;;;0.70;0.50;;;18.60;56.70;;;23.11;93.31;-21306.66;5075952;28;20431;-72
2021/04/20 10:07:19;;;;;;;0.80;0.70;;;18.80;52.60;;;22.66;97.85;-21294.81;5094578;28;20917;-71
2021/04/20 10:09:54;;;;;;;0.70;0.43;;;19.40;52.00;;;22.98;90.90;-21303.25;5085803;28;20538;-71
2021/04/20 10:12:39;;;;;;;0.80;0.80;;;19.20;47.10;;;21.78;100.00;-21271.09;5076095;28;20455;-71
2021/04/20 10:15:14;;;;;;;1.17;0.53;;;19.10;51.20;;;22.16;100.00;-21281.47;5075732;28;20469;-72
2021/04/20 10:17:53;;;;;;;1.07;0.77;;;19.30;47.30;;;21.19;100.00;-21255.44;5082158;28;20526;-71
2021/04/20 10:20:34;;;;;;;0.83;0.70;;;18.90;41.40;;;21.35;100.00;-21259.66;5090709;28;20446;-71
2021/04/20 10:23:17;;;;;;;2.40;0.90;;;18.90;48.10;;;22.48;100.00;-21289.91;5095899;28;20517;-72
2021/04/20 10:26:21;;;;;;;1.40;0.90;;;19.30;43.40;;;21.99;98.59;-21276.84;5094892;28;20438;-71
2021/04/20 10:28:56;;;;;;;0.80;0.70;;;19.60;42.00;;;22.33;93.89;-21285.97;5088697;28;20410;-71
2021/04/20 10:31:34;;;;;;;2.17;1.00;;;20.10;36.40;;;23.45;95.27;-21315.75;5074825;28;20773;-71
2021/04/20 10:34:02;;;;;;;1.00;0.77;;;20.80;38.30;;;24.57;86.25;-21345.53;5073920;28;20470;-72
2021/04/20 10:36:33;;;;;;;2.23;1.07;;;20.30;29.80;;;24.86;81.46;-21353.25;5093279;28;20462;-72
2021/04/20 10:39:08;;;;;;;3.73;1.13;;;19.70;29.20;;;22.01;95.67;-21277.25;5095178;28;20433;-72